sensor_id;sensor_type;location;lat;lon;timestamp;pressure;altitude;pressure_sealevel;temperature;humidity
48630;BME280;34426;52.180;4.462;2023-03-04T00:00:48;102866.25;;;5.78;75.46
48630;BME280;34426;52.180;4.462;2023-03-04T00:03:14;102867.44;;;5.83;75.01
48630;BME280;34426;52.180;4.462;2023-03-04T00:05:39;102877.50;;;5.84;74.21
48630;BME280;34426;52.180;4.462;2023-03-04T00:08:06;102874.91;;;5.83;75.27
48630;BME280;34426;52.180;4.462;2023-03-04T00:10:32;102872.28;;;5.89;73.95
48630;BME280;34426;52.180;4.462;2023-03-04T00:12:57;102874.03;;;5.82;73.38
48630;BME280;34426;52.180;4.462;2023-03-04T00:15:23;102872.13;;;5.83;74.50
48630;BME280;34426;52.180;4.462;2023-03-04T00:17:48;102873.00;;;5.83;73.87
48630;BME280;34426;52.180;4.462;2023-03-04T00:20:14;102874.03;;;5.82;74.30
48630;BME280;34426;52.180;4.462;2023-03-04T00:22:40;102882.66;;;5.87;74.34
48630;BME280;34426;52.180;4.462;2023-03-04T00:25:07;102883.03;;;5.84;73.80
48630;BME280;34426;52.180;4.462;2023-03-04T00:27:32;102876.63;;;5.84;71.93
48630;BME280;34426;52.180;4.462;2023-03-04T00:29:58;102873.66;;;5.85;72.52
48630;BME280;34426;52.180;4.462;2023-03-04T00:32:23;102866.56;;;5.83;71.75
48630;BME280;34426;52.180;4.462;2023-03-04T00:34:49;102866.63;;;5.75;72.39
48630;BME280;34426;52.180;4.462;2023-03-04T00:37:14;102867.88;;;5.72;72.75
48630;BME280;34426;52.180;4.462;2023-03-04T00:39:40;102867.13;;;5.78;73.20
48630;BME280;34426;52.180;4.462;2023-03-04T00:42:07;102867.50;;;5.75;71.81
48630;BME280;34426;52.180;4.462;2023-03-04T00:44:32;102871.81;;;5.78;72.42
48630;BME280;34426;52.180;4.462;2023-03-04T00:46:58;102869.22;;;5.76;72.37
48630;BME280;34426;52.180;4.462;2023-03-04T00:49:23;102866.06;;;5.79;72.38
48630;BME280;34426;52.180;4.462;2023-03-04T00:51:49;102868.56;;;5.74;72.08
48630;BME280;34426;52.180;4.462;2023-03-04T00:54:15;102864.41;;;5.70;73.04
48630;BME280;34426;52.180;4.462;2023-03-04T00:56:40;102872.19;;;5.75;72.75
48630;BME280;34426;52.180;4.462;2023-03-04T00:59:07;102868.72;;;5.73;72.25
48630;BME280;34426;52.180;4.462;2023-03-04T01:01:32;102874.66;;;5.69;72.62
48630;BME280;34426;52.180;4.462;2023-03-04T01:03:58;102868.63;;;5.66;72.73
48630;BME280;34426;52.180;4.462;2023-03-04T01:06:23;102869.78;;;5.72;73.40
48630;BME280;34426;52.180;4.462;2023-03-04T01:08:49;102861.34;;;5.65;73.40
48630;BME280;34426;52.180;4.462;2023-03-04T01:11:14;102871.31;;;5.74;73.71
48630;BME280;34426;52.180;4.462;2023-03-04T01:13:40;102870.47;;;5.74;74.05
48630;BME280;34426;52.180;4.462;2023-03-04T01:16:07;102863.06;;;5.66;74.06
48630;BME280;34426;52.180;4.462;2023-03-04T01:18:33;102858.25;;;5.83;73.52
48630;BME280;34426;52.180;4.462;2023-03-04T01:20:58;102866.31;;;5.69;73.40
48630;BME280;34426;52.180;4.462;2023-03-04T01:23:24;102863.69;;;5.76;73.84
48630;BME280;34426;52.180;4.462;2023-03-04T01:25:49;102856.28;;;5.91;72.83
48630;BME280;34426;52.180;4.462;2023-03-04T01:28:15;102852.50;;;5.84;72.82
48630;BME280;34426;52.180;4.462;2023-03-04T01:30:40;102847.78;;;5.93;71.78
48630;BME280;34426;52.180;4.462;2023-03-04T01:33:07;102850.72;;;5.91;71.72
48630;BME280;34426;52.180;4.462;2023-03-04T01:35:33;102848.81;;;5.92;71.48
48630;BME280;34426;52.180;4.462;2023-03-04T01:37:58;102852.31;;;5.86;72.46
48630;BME280;34426;52.180;4.462;2023-03-04T01:40:24;102845.41;;;5.82;71.92
48630;BME280;34426;52.180;4.462;2023-03-04T01:42:49;102850.34;;;5.72;72.65
48630;BME280;34426;52.180;4.462;2023-03-04T01:45:17;102843.19;;;5.77;72.82
48630;BME280;34426;52.180;4.462;2023-03-04T01:47:44;102838.38;;;5.71;72.95
48630;BME280;34426;52.180;4.462;2023-03-04T01:50:18;102829.31;;;5.77;72.47
48630;BME280;34426;52.180;4.462;2023-03-04T01:52:44;102823.16;;;5.67;73.26
48630;BME280;34426;52.180;4.462;2023-03-04T01:55:14;102828.03;;;5.65;74.13
48630;BME280;34426;52.180;4.462;2023-03-04T01:57:40;102818.94;;;5.56;74.76
48630;BME280;34426;52.180;4.462;2023-03-04T02:00:20;102825.34;;;5.57;74.47
48630;BME280;34426;52.180;4.462;2023-03-04T02:02:46;102815.09;;;5.57;74.18
48630;BME280;34426;52.180;4.462;2023-03-04T02:05:14;102815.97;;;5.58;74.22
48630;BME280;34426;52.180;4.462;2023-03-04T02:07:40;102807.94;;;5.63;74.11
48630;BME280;34426;52.180;4.462;2023-03-04T02:10:07;102805.81;;;5.65;72.64
48630;BME280;34426;52.180;4.462;2023-03-04T02:12:33;102800.66;;;5.62;72.57
48630;BME280;34426;52.180;4.462;2023-03-04T02:14:59;102795.88;;;5.56;73.69
48630;BME280;34426;52.180;4.462;2023-03-04T02:17:24;102796.44;;;5.66;72.78
48630;BME280;34426;52.180;4.462;2023-03-04T02:19:55;102795.75;;;5.64;73.02
48630;BME280;34426;52.180;4.462;2023-03-04T02:22:24;102791.00;;;5.73;71.91
48630;BME280;34426;52.180;4.462;2023-03-04T02:24:53;102791.69;;;5.75;71.95
48630;BME280;34426;52.180;4.462;2023-03-04T02:27:21;102791.47;;;5.76;71.67
48630;BME280;34426;52.180;4.462;2023-03-04T02:29:47;102783.22;;;5.68;72.49
48630;BME280;34426;52.180;4.462;2023-03-04T02:32:13;102791.09;;;5.79;72.15
48630;BME280;34426;52.180;4.462;2023-03-04T02:34:44;102780.38;;;5.76;72.34
48630;BME280;34426;52.180;4.462;2023-03-04T02:37:11;102781.63;;;5.74;72.50
48630;BME280;34426;52.180;4.462;2023-03-04T02:39:39;102782.47;;;5.74;72.51
48630;BME280;34426;52.180;4.462;2023-03-04T02:42:05;102771.75;;;5.71;72.25
48630;BME280;34426;52.180;4.462;2023-03-04T02:44:34;102779.69;;;5.74;72.73
48630;BME280;34426;52.180;4.462;2023-03-04T02:47:01;102771.28;;;5.82;71.26
48630;BME280;34426;52.180;4.462;2023-03-04T02:49:29;102776.84;;;5.82;71.09
48630;BME280;34426;52.180;4.462;2023-03-04T02:52:00;102773.59;;;5.79;71.25
48630;BME280;34426;52.180;4.462;2023-03-04T02:54:26;102770.41;;;5.67;71.86
48630;BME280;34426;52.180;4.462;2023-03-04T02:56:55;102771.19;;;5.61;73.08
48630;BME280;34426;52.180;4.462;2023-03-04T02:59:22;102773.66;;;5.56;72.87
48630;BME280;34426;52.180;4.462;2023-03-04T03:01:49;102764.16;;;5.50;73.25
48630;BME280;34426;52.180;4.462;2023-03-04T03:04:15;102772.50;;;5.65;72.36
48630;BME280;34426;52.180;4.462;2023-03-04T03:06:41;102767.72;;;5.59;73.42
48630;BME280;34426;52.180;4.462;2023-03-04T03:09:07;102763.69;;;5.47;73.99
48630;BME280;34426;52.180;4.462;2023-03-04T03:11:33;102756.34;;;5.54;72.90
48630;BME280;34426;52.180;4.462;2023-03-04T03:14:00;102759.84;;;5.48;73.71
48630;BME280;34426;52.180;4.462;2023-03-04T03:16:26;102755.28;;;5.55;73.02
48630;BME280;34426;52.180;4.462;2023-03-04T03:18:52;102759.09;;;5.54;74.22
48630;BME280;34426;52.180;4.462;2023-03-04T03:21:18;102759.78;;;5.56;73.05
48630;BME280;34426;52.180;4.462;2023-03-04T03:23:44;102762.75;;;5.54;73.38
48630;BME280;34426;52.180;4.462;2023-03-04T03:26:09;102762.84;;;5.61;73.23
48630;BME280;34426;52.180;4.462;2023-03-04T03:28:35;102763.53;;;5.63;73.20
48630;BME280;34426;52.180;4.462;2023-03-04T03:31:01;102763.91;;;5.60;72.71
48630;BME280;34426;52.180;4.462;2023-03-04T03:33:27;102758.63;;;5.65;72.94
48630;BME280;34426;52.180;4.462;2023-03-04T03:35:53;102766.38;;;5.55;72.48
48630;BME280;34426;52.180;4.462;2023-03-04T03:38:19;102756.63;;;5.59;72.87
48630;BME280;34426;52.180;4.462;2023-03-04T03:40:44;102761.88;;;5.54;73.50
48630;BME280;34426;52.180;4.462;2023-03-04T03:43:10;102758.44;;;5.52;72.92
48630;BME280;34426;52.180;4.462;2023-03-04T03:45:36;102763.31;;;5.50;72.64
48630;BME280;34426;52.180;4.462;2023-03-04T03:48:01;102765.72;;;5.53;73.66
48630;BME280;34426;52.180;4.462;2023-03-04T03:50:27;102757.50;;;5.59;72.97
48630;BME280;34426;52.180;4.462;2023-03-04T03:52:54;102761.69;;;5.70;72.94
48630;BME280;34426;52.180;4.462;2023-03-04T03:55:20;102770.69;;;5.57;74.17
48630;BME280;34426;52.180;4.462;2023-03-04T03:57:45;102770.50;;;5.59;74.48
48630;BME280;34426;52.180;4.462;2023-03-04T04:00:12;102770.59;;;5.51;73.33
48630;BME280;34426;52.180;4.462;2023-03-04T04:02:38;102770.66;;;5.43;74.17
48630;BME280;34426;52.180;4.462;2023-03-04T04:05:05;102776.50;;;5.48;73.43
48630;BME280;34426;52.180;4.462;2023-03-04T04:07:31;102776.91;;;5.59;72.70
48630;BME280;34426;52.180;4.462;2023-03-04T04:09:58;102774.03;;;5.53;70.44
48630;BME280;34426;52.180;4.462;2023-03-04T04:12:23;102760.03;;;5.46;71.31
48630;BME280;34426;52.180;4.462;2023-03-04T04:14:48;102764.22;;;5.42;70.91
48630;BME280;34426;52.180;4.462;2023-03-04T04:17:14;102756.84;;;5.34;72.55
48630;BME280;34426;52.180;4.462;2023-03-04T04:19:40;102763.69;;;5.47;70.85
48630;BME280;34426;52.180;4.462;2023-03-04T04:22:06;102760.03;;;5.46;72.03
48630;BME280;34426;52.180;4.462;2023-03-04T04:24:32;102752.28;;;5.42;72.96
48630;BME280;34426;52.180;4.462;2023-03-04T04:26:59;102749.88;;;5.39;73.16
48630;BME280;34426;52.180;4.462;2023-03-04T04:29:25;102755.22;;;5.40;73.86
48630;BME280;34426;52.180;4.462;2023-03-04T04:31:50;102758.13;;;5.47;73.66
48630;BME280;34426;52.180;4.462;2023-03-04T04:34:16;102751.22;;;5.43;73.18
48630;BME280;34426;52.180;4.462;2023-03-04T04:36:41;102745.53;;;5.59;73.23
48630;BME280;34426;52.180;4.462;2023-03-04T04:39:07;102748.19;;;5.67;73.79
48630;BME280;34426;52.180;4.462;2023-03-04T04:41:35;102749.91;;;5.68;72.98
48630;BME280;34426;52.180;4.462;2023-03-04T04:44:02;102751.16;;;5.65;73.50
48630;BME280;34426;52.180;4.462;2023-03-04T04:46:28;102756.72;;;5.65;74.20
48630;BME280;34426;52.180;4.462;2023-03-04T04:48:54;102758.34;;;5.60;74.86
48630;BME280;34426;52.180;4.462;2023-03-04T04:51:19;102754.91;;;5.58;75.46
48630;BME280;34426;52.180;4.462;2023-03-04T04:53:45;102750.22;;;5.58;75.19
48630;BME280;34426;52.180;4.462;2023-03-04T04:56:12;102752.69;;;5.53;75.80
48630;BME280;34426;52.180;4.462;2023-03-04T04:58:38;102756.03;;;5.49;76.87
48630;BME280;34426;52.180;4.462;2023-03-04T05:01:05;102762.06;;;5.52;77.24
48630;BME280;34426;52.180;4.462;2023-03-04T05:03:31;102763.31;;;5.50;77.32
48630;BME280;34426;52.180;4.462;2023-03-04T05:05:57;102770.22;;;5.54;77.41
48630;BME280;34426;52.180;4.462;2023-03-04T05:08:22;102773.56;;;5.64;75.52
48630;BME280;34426;52.180;4.462;2023-03-04T05:10:48;102766.69;;;5.60;75.45
48630;BME280;34426;52.180;4.462;2023-03-04T05:13:13;102761.31;;;5.58;75.46
48630;BME280;34426;52.180;4.462;2023-03-04T05:15:39;102769.09;;;5.63;74.19
48630;BME280;34426;52.180;4.462;2023-03-04T05:18:05;102763.22;;;5.58;74.50
48630;BME280;34426;52.180;4.462;2023-03-04T05:20:31;102768.09;;;5.56;74.55
48630;BME280;34426;52.180;4.462;2023-03-04T05:22:56;102761.94;;;5.46;74.72
48630;BME280;34426;52.180;4.462;2023-03-04T05:25:22;102766.44;;;5.47;75.02
48630;BME280;34426;52.180;4.462;2023-03-04T05:27:47;102764.91;;;5.44;74.09
48630;BME280;34426;52.180;4.462;2023-03-04T05:30:13;102761.94;;;5.46;74.42
48630;BME280;34426;52.180;4.462;2023-03-04T05:32:38;102761.47;;;5.42;75.10
48630;BME280;34426;52.180;4.462;2023-03-04T05:35:06;102766.53;;;5.39;75.96
48630;BME280;34426;52.180;4.462;2023-03-04T05:37:32;102765.41;;;5.48;74.90
48630;BME280;34426;52.180;4.462;2023-03-04T05:39:57;102769.72;;;5.50;75.58
48630;BME280;34426;52.180;4.462;2023-03-04T05:42:23;102766.63;;;5.45;77.05
48630;BME280;34426;52.180;4.462;2023-03-04T05:44:48;102769.47;;;5.60;76.65
48630;BME280;34426;52.180;4.462;2023-03-04T05:47:14;102765.63;;;5.61;78.06
48630;BME280;34426;52.180;4.462;2023-03-04T05:49:39;102769.16;;;5.55;79.63
48630;BME280;34426;52.180;4.462;2023-03-04T05:52:06;102761.56;;;5.49;79.76
48630;BME280;34426;52.180;4.462;2023-03-04T05:54:31;102762.94;;;5.53;80.44
48630;BME280;34426;52.180;4.462;2023-03-04T05:56:57;102764.66;;;5.54;79.24
48630;BME280;34426;52.180;4.462;2023-03-04T05:59:22;102753.94;;;5.51;80.33
48630;BME280;34426;52.180;4.462;2023-03-04T06:01:48;102755.47;;;5.53;80.66
48630;BME280;34426;52.180;4.462;2023-03-04T06:04:13;102760.09;;;5.61;80.07
48630;BME280;34426;52.180;4.462;2023-03-04T06:06:39;102760.81;;;5.55;80.28
48630;BME280;34426;52.180;4.462;2023-03-04T06:09:06;102764.84;;;5.52;79.50
48630;BME280;34426;52.180;4.462;2023-03-04T06:11:31;102760.41;;;5.43;80.41
48630;BME280;34426;52.180;4.462;2023-03-04T06:13:57;102756.41;;;5.46;80.26
48630;BME280;34426;52.180;4.462;2023-03-04T06:16:22;102749.88;;;5.39;80.75
48630;BME280;34426;52.180;4.462;2023-03-04T06:18:47;102747.50;;;5.50;77.67
48630;BME280;34426;52.180;4.462;2023-03-04T06:21:13;102748.00;;;5.54;75.94
48630;BME280;34426;52.180;4.462;2023-03-04T06:23:38;102751.81;;;5.53;76.52
48630;BME280;34426;52.180;4.462;2023-03-04T06:26:05;102748.38;;;5.51;75.29
48630;BME280;34426;52.180;4.462;2023-03-04T06:28:31;102744.84;;;5.57;76.61
48630;BME280;34426;52.180;4.462;2023-03-04T06:30:57;102753.19;;;5.57;76.44
48630;BME280;34426;52.180;4.462;2023-03-04T06:33:22;102754.97;;;5.64;75.21
48630;BME280;34426;52.180;4.462;2023-03-04T06:35:52;102756.16;;;5.70;75.02
48630;BME280;34426;52.180;4.462;2023-03-04T06:38:18;102755.84;;;5.65;75.60
48630;BME280;34426;52.180;4.462;2023-03-04T06:40:44;102764.84;;;5.67;75.51
48630;BME280;34426;52.180;4.462;2023-03-04T06:43:10;102763.81;;;5.68;76.40
48630;BME280;34426;52.180;4.462;2023-03-04T06:45:37;102773.84;;;5.69;75.60
48630;BME280;34426;52.180;4.462;2023-03-04T06:48:03;102783.22;;;5.68;77.67
48630;BME280;34426;52.180;4.462;2023-03-04T06:50:29;102782.28;;;5.61;79.23
48630;BME280;34426;52.180;4.462;2023-03-04T06:52:55;102781.78;;;5.57;80.45
48630;BME280;34426;52.180;4.462;2023-03-04T06:55:20;102784.09;;;5.54;81.18
48630;BME280;34426;52.180;4.462;2023-03-04T06:57:46;102783.53;;;5.58;81.52
48630;BME280;34426;52.180;4.462;2023-03-04T07:00:14;102781.00;;;5.49;82.29
48630;BME280;34426;52.180;4.462;2023-03-04T07:02:40;102779.66;;;5.45;82.17
48630;BME280;34426;52.180;4.462;2023-03-04T07:05:06;102782.44;;;5.45;82.29
48630;BME280;34426;52.180;4.462;2023-03-04T07:07:31;102781.94;;;5.41;82.36
48630;BME280;34426;52.180;4.462;2023-03-04T07:09:57;102781.94;;;5.41;82.82
48630;BME280;34426;52.180;4.462;2023-03-04T07:12:23;102789.47;;;5.32;83.45
48630;BME280;34426;52.180;4.462;2023-03-04T07:14:48;102784.91;;;5.40;83.42
48630;BME280;34426;52.180;4.462;2023-03-04T07:17:15;102789.03;;;5.44;83.59
48630;BME280;34426;52.180;4.462;2023-03-04T07:19:40;102781.00;;;5.49;83.72
48630;BME280;34426;52.180;4.462;2023-03-04T07:22:06;102783.03;;;5.55;83.03
48630;BME280;34426;52.180;4.462;2023-03-04T07:24:31;102801.72;;;5.76;82.60
48630;BME280;34426;52.180;4.462;2023-03-04T07:26:57;102795.91;;;5.85;81.24
48630;BME280;34426;52.180;4.462;2023-03-04T07:29:23;102798.44;;;5.95;81.77
48630;BME280;34426;52.180;4.462;2023-03-04T07:31:48;102804.38;;;6.07;81.22
48630;BME280;34426;52.180;4.462;2023-03-04T07:34:15;102806.22;;;5.99;81.19
48630;BME280;34426;52.180;4.462;2023-03-04T07:36:41;102800.75;;;5.91;81.77
48630;BME280;34426;52.180;4.462;2023-03-04T07:39:09;102803.63;;;5.98;82.22
48630;BME280;34426;52.180;4.462;2023-03-04T07:41:35;102808.88;;;6.08;81.52
48630;BME280;34426;52.180;4.462;2023-03-04T07:44:02;102811.56;;;6.16;81.41
48630;BME280;34426;52.180;4.462;2023-03-04T07:46:28;102811.00;;;6.20;80.96
48630;BME280;34426;52.180;4.462;2023-03-04T07:48:54;102815.59;;;6.28;80.91
48630;BME280;34426;52.180;4.462;2023-03-04T07:51:23;102819.72;;;6.32;80.58
48630;BME280;34426;52.180;4.462;2023-03-04T07:53:50;102818.66;;;6.18;81.13
48630;BME280;34426;52.180;4.462;2023-03-04T07:56:20;102818.28;;;6.21;82.04
48630;BME280;34426;52.180;4.462;2023-03-04T07:58:46;102824.53;;;6.38;80.79
48630;BME280;34426;52.180;4.462;2023-03-04T08:01:13;102811.41;;;6.47;80.70
48630;BME280;34426;52.180;4.462;2023-03-04T08:03:40;102819.78;;;6.53;79.50
48630;BME280;34426;52.180;4.462;2023-03-04T08:06:06;102821.28;;;6.49;79.78
48630;BME280;34426;52.180;4.462;2023-03-04T08:08:34;102821.28;;;6.49;79.33
48630;BME280;34426;52.180;4.462;2023-03-04T08:11:02;102824.31;;;6.54;79.44
48630;BME280;34426;52.180;4.462;2023-03-04T08:13:28;102819.00;;;6.74;79.66
48630;BME280;34426;52.180;4.462;2023-03-04T08:15:54;102832.22;;;6.87;78.34
48630;BME280;34426;52.180;4.462;2023-03-04T08:18:20;102825.25;;;6.76;80.25
48630;BME280;34426;52.180;4.462;2023-03-04T08:20:45;102822.66;;;6.60;82.74
48630;BME280;34426;52.180;4.462;2023-03-04T08:23:15;102816.25;;;6.59;83.60
48630;BME280;34426;52.180;4.462;2023-03-04T08:25:42;102820.84;;;6.52;84.68
48630;BME280;34426;52.180;4.462;2023-03-04T08:28:08;102824.91;;;6.50;85.00
48630;BME280;34426;52.180;4.462;2023-03-04T08:30:34;102822.13;;;6.35;86.33
48630;BME280;34426;52.180;4.462;2023-03-04T08:33:00;102825.00;;;6.27;86.47
48630;BME280;34426;52.180;4.462;2023-03-04T08:35:26;102821.34;;;6.26;86.78
48630;BME280;34426;52.180;4.462;2023-03-04T08:37:51;102820.22;;;6.36;85.94
48630;BME280;34426;52.180;4.462;2023-03-04T08:40:18;102826.81;;;6.34;85.97
48630;BME280;34426;52.180;4.462;2023-03-04T08:42:44;102827.88;;;6.48;86.18
48630;BME280;34426;52.180;4.462;2023-03-04T08:45:10;102825.72;;;6.65;86.18
48630;BME280;34426;52.180;4.462;2023-03-04T08:47:36;102822.06;;;6.79;85.86
48630;BME280;34426;52.180;4.462;2023-03-04T08:50:01;102821.09;;;6.87;85.30
48630;BME280;34426;52.180;4.462;2023-03-04T08:52:27;102821.25;;;7.00;85.06
48630;BME280;34426;52.180;4.462;2023-03-04T08:54:53;102813.03;;;6.92;84.75
48630;BME280;34426;52.180;4.462;2023-03-04T08:57:18;102815.88;;;6.98;84.80
48630;BME280;34426;52.180;4.462;2023-03-04T08:59:45;102806.56;;;7.06;84.12
48630;BME280;34426;52.180;4.462;2023-03-04T09:02:11;102802.66;;;7.22;83.38
48630;BME280;34426;52.180;4.462;2023-03-04T09:04:36;102809.38;;;7.27;83.42
48630;BME280;34426;52.180;4.462;2023-03-04T09:07:02;102805.13;;;7.31;83.29
48630;BME280;34426;52.180;4.462;2023-03-04T09:09:28;102804.97;;;7.40;82.96
48630;BME280;34426;52.180;4.462;2023-03-04T09:11:53;102809.47;;;7.41;81.21
48630;BME280;34426;52.180;4.462;2023-03-04T09:14:18;102808.97;;;7.30;80.66
48630;BME280;34426;52.180;4.462;2023-03-04T09:16:45;102811.56;;;7.32;80.58
48630;BME280;34426;52.180;4.462;2023-03-04T09:19:11;102805.31;;;7.30;80.32
48630;BME280;34426;52.180;4.462;2023-03-04T09:21:36;102803.91;;;7.41;80.02
48630;BME280;34426;52.180;4.462;2023-03-04T09:24:02;102805.31;;;7.51;80.24
48630;BME280;34426;52.180;4.462;2023-03-04T09:26:28;102794.69;;;7.61;79.62
48630;BME280;34426;52.180;4.462;2023-03-04T09:28:55;102803.91;;;7.62;79.82
48630;BME280;34426;52.180;4.462;2023-03-04T09:31:21;102801.56;;;7.65;80.23
48630;BME280;34426;52.180;4.462;2023-03-04T09:33:49;102798.41;;;7.68;79.96
48630;BME280;34426;52.180;4.462;2023-03-04T09:36:15;102795.81;;;7.67;80.04
48630;BME280;34426;52.180;4.462;2023-03-04T09:38:41;102798.19;;;7.70;80.27
48630;BME280;34426;52.180;4.462;2023-03-04T09:41:08;102807.28;;;7.79;79.77
48630;BME280;34426;52.180;4.462;2023-03-04T09:43:34;102808.22;;;7.92;79.70
48630;BME280;34426;52.180;4.462;2023-03-04T09:46:04;102808.56;;;7.83;79.53
48630;BME280;34426;52.180;4.462;2023-03-04T09:48:38;102809.34;;;7.70;81.33
48630;BME280;34426;52.180;4.462;2023-03-04T09:51:18;102814.91;;;7.49;83.68
48630;BME280;34426;52.180;4.462;2023-03-04T09:53:49;102813.59;;;7.45;84.38
48630;BME280;34426;52.180;4.462;2023-03-04T09:56:16;102809.44;;;7.34;84.41
48630;BME280;34426;52.180;4.462;2023-03-04T09:58:48;102804.94;;;7.33;84.74
48630;BME280;34426;52.180;4.462;2023-03-04T10:01:21;102806.56;;;7.27;85.40
48630;BME280;34426;52.180;4.462;2023-03-04T10:03:50;102799.41;;;7.40;85.70
48630;BME280;34426;52.180;4.462;2023-03-04T10:06:21;102796.41;;;7.41;84.92
48630;BME280;34426;52.180;4.462;2023-03-04T10:08:52;102790.25;;;7.46;84.65
48630;BME280;34426;52.180;4.462;2023-03-04T10:11:23;102802.31;;;7.53;84.97
48630;BME280;34426;52.180;4.462;2023-03-04T10:13:55;102793.88;;;7.67;84.59
48630;BME280;34426;52.180;4.462;2023-03-04T10:16:28;102789.56;;;7.65;82.01
48630;BME280;34426;52.180;4.462;2023-03-04T10:19:01;102794.94;;;7.94;81.74
48630;BME280;34426;52.180;4.462;2023-03-04T10:21:35;102797.94;;;7.93;80.13
48630;BME280;34426;52.180;4.462;2023-03-04T10:24:10;102792.88;;;8.03;79.48
48630;BME280;34426;52.180;4.462;2023-03-04T10:26:36;102789.94;;;8.11;80.21
48630;BME280;34426;52.180;4.462;2023-03-04T10:29:02;102782.69;;;8.17;80.08
48630;BME280;34426;52.180;4.462;2023-03-04T10:31:32;102794.38;;;8.06;79.37
48630;BME280;34426;52.180;4.462;2023-03-04T10:33:58;102792.56;;;7.91;79.04
48630;BME280;34426;52.180;4.462;2023-03-04T10:36:42;102801.69;;;8.07;78.49
48630;BME280;34426;52.180;4.462;2023-03-04T10:39:12;102791.94;;;7.96;78.49
48630;BME280;34426;52.180;4.462;2023-03-04T10:41:41;102789.97;;;7.90;80.05
48630;BME280;34426;52.180;4.462;2023-03-04T10:44:14;102790.59;;;7.85;81.73
48630;BME280;34426;52.180;4.462;2023-03-04T10:46:41;102803.50;;;7.93;82.34
48630;BME280;34426;52.180;4.462;2023-03-04T10:49:09;102787.00;;;7.91;82.15
48630;BME280;34426;52.180;4.462;2023-03-04T10:51:41;102793.03;;;7.67;82.50
48630;BME280;34426;52.180;4.462;2023-03-04T10:54:21;102793.09;;;7.80;83.04
48630;BME280;34426;52.180;4.462;2023-03-04T10:56:59;102796.66;;;7.95;81.82
48630;BME280;34426;52.180;4.462;2023-03-04T10:59:43;102794.03;;;8.15;82.66
48630;BME280;34426;52.180;4.462;2023-03-04T11:02:23;102777.09;;;8.17;80.53
48630;BME280;34426;52.180;4.462;2023-03-04T11:04:52;102782.72;;;8.30;79.60
48630;BME280;34426;52.180;4.462;2023-03-04T11:07:20;102780.81;;;8.65;79.73
48630;BME280;34426;52.180;4.462;2023-03-04T11:09:46;102781.28;;;8.82;77.80
48630;BME280;34426;52.180;4.462;2023-03-04T11:12:13;102766.66;;;8.73;77.54
48630;BME280;34426;52.180;4.462;2023-03-04T11:14:40;102780.41;;;8.75;77.54
48630;BME280;34426;52.180;4.462;2023-03-04T11:17:17;102775.66;;;8.68;77.50
48630;BME280;34426;52.180;4.462;2023-03-04T11:19:46;102774.78;;;8.68;77.99
48630;BME280;34426;52.180;4.462;2023-03-04T11:22:15;102769.31;;;8.94;76.84
48630;BME280;34426;52.180;4.462;2023-03-04T11:24:43;102775.16;;;9.06;76.22
48630;BME280;34426;52.180;4.462;2023-03-04T11:27:13;102772.25;;;8.80;76.90
48630;BME280;34426;52.180;4.462;2023-03-04T11:29:42;102781.66;;;8.31;80.78
48630;BME280;34426;52.180;4.462;2023-03-04T11:32:13;102779.38;;;8.07;82.47
48630;BME280;34426;52.180;4.462;2023-03-04T11:34:47;102780.75;;;7.89;84.02
48630;BME280;34426;52.180;4.462;2023-03-04T11:37:20;102783.28;;;7.84;85.01
48630;BME280;34426;52.180;4.462;2023-03-04T11:39:51;102784.25;;;7.98;85.60
48630;BME280;34426;52.180;4.462;2023-03-04T11:42:25;102775.19;;;7.89;84.24
48630;BME280;34426;52.180;4.462;2023-03-04T11:44:54;102760.69;;;8.00;84.84
48630;BME280;34426;52.180;4.462;2023-03-04T11:47:35;102758.50;;;8.30;83.94
48630;BME280;34426;52.180;4.462;2023-03-04T11:50:17;102763.63;;;8.27;83.38
48630;BME280;34426;52.180;4.462;2023-03-04T11:56:15;102752.72;;;8.80;81.50
48630;BME280;34426;52.180;4.462;2023-03-04T11:58:57;102747.19;;;8.93;79.63
48630;BME280;34426;52.180;4.462;2023-03-04T12:01:32;102746.91;;;8.75;80.62
48630;BME280;34426;52.180;4.462;2023-03-04T12:04:09;102745.19;;;8.74;79.78
48630;BME280;34426;52.180;4.462;2023-03-04T12:06:46;102744.34;;;8.73;78.34
48630;BME280;34426;52.180;4.462;2023-03-04T12:09:25;102749.94;;;8.80;78.68
48630;BME280;34426;52.180;4.462;2023-03-04T12:12:04;102745.94;;;8.41;79.16
48630;BME280;34426;52.180;4.462;2023-03-04T12:14:36;102747.75;;;8.68;78.75
48630;BME280;34426;52.180;4.462;2023-03-04T12:17:35;102734.03;;;8.74;78.02
48630;BME280;34426;52.180;4.462;2023-03-04T12:20:34;102733.72;;;9.10;76.50
48630;BME280;34426;52.180;4.462;2023-03-04T12:23:14;102730.94;;;9.23;76.46
48630;BME280;34426;52.180;4.462;2023-03-04T12:25:50;102725.16;;;9.38;74.25
48630;BME280;34426;52.180;4.462;2023-03-04T12:28:41;102727.31;;;9.49;74.13
48630;BME280;34426;52.180;4.462;2023-03-04T12:31:19;102725.59;;;9.48;72.70
48630;BME280;34426;52.180;4.462;2023-03-04T12:34:02;102726.00;;;9.45;74.50
48630;BME280;34426;52.180;4.462;2023-03-04T12:36:38;102723.44;;;9.43;74.69
48630;BME280;34426;52.180;4.462;2023-03-04T12:39:21;102714.19;;;9.43;74.47
48630;BME280;34426;52.180;4.462;2023-03-04T12:41:54;102711.78;;;9.66;74.50
48630;BME280;34426;52.180;4.462;2023-03-04T12:44:24;102698.47;;;9.68;74.43
48630;BME280;34426;52.180;4.462;2023-03-04T12:47:06;102703.41;;;9.79;72.80
48630;BME280;34426;52.180;4.462;2023-03-04T12:49:44;102704.69;;;9.83;73.01
48630;BME280;34426;52.180;4.462;2023-03-04T12:52:16;102701.72;;;9.52;71.17
48630;BME280;34426;52.180;4.462;2023-03-04T12:54:49;102695.25;;;9.58;73.12
48630;BME280;34426;52.180;4.462;2023-03-04T12:57:17;102701.28;;;9.61;70.67
48630;BME280;34426;52.180;4.462;2023-03-04T12:59:50;102696.72;;;9.87;68.88
48630;BME280;34426;52.180;4.462;2023-03-04T13:02:34;102689.59;;;9.97;64.21
48630;BME280;34426;52.180;4.462;2023-03-04T13:05:18;102702.75;;;9.77;65.53
48630;BME280;34426;52.180;4.462;2023-03-04T13:07:55;102691.16;;;9.54;66.07